createdAt,value
2023-05-09T00:02:03.122Z,100885.96
2023-05-09T00:04:30.776Z,100887.27
2023-05-09T00:06:57.846Z,100887.54
2023-05-09T00:09:24.995Z,100890.85
2023-05-09T00:11:57.157Z,100893.63
2023-05-09T00:14:24.374Z,100888.83
2023-05-09T00:16:52.282Z,100892.17
2023-05-09T00:19:20.165Z,100890.20
2023-05-09T00:21:47.853Z,100887.23
2023-05-09T00:24:14.701Z,100889.27
2023-05-09T00:26:41.474Z,100890.14
2023-05-09T00:29:13.541Z,100887.67
2023-05-09T00:31:40.643Z,100888.83
2023-05-09T00:34:08.073Z,100888.54
2023-05-09T00:36:35.132Z,100889.37
2023-05-09T00:39:02.002Z,100892.36
2023-05-09T00:41:30.079Z,100896.59
2023-05-09T00:43:57.585Z,100892.77
2023-05-09T00:46:25.872Z,100891.05
2023-05-09T00:48:52.751Z,100889.95
2023-05-09T00:51:19.824Z,100886.92
2023-05-09T00:53:47.081Z,100889.60
2023-05-09T00:56:14.278Z,100889.04
2023-05-09T00:58:41.322Z,100885.84
2023-05-09T01:01:08.413Z,100888.54
2023-05-09T01:03:38.455Z,100889.27
2023-05-09T01:06:27.044Z,100891.54
2023-05-09T01:09:25.143Z,100892.69
2023-05-09T01:12:19.108Z,100890.48
2023-05-09T01:15:24.222Z,100888.96
2023-05-09T01:17:58.417Z,100889.80
2023-05-09T01:20:52.803Z,100893.52
2023-05-09T01:23:46.031Z,100893.73
2023-05-09T01:26:34.727Z,100892.31
2023-05-09T01:29:29.800Z,100891.42
2023-05-09T01:31:56.750Z,100892.04
2023-05-09T01:34:26.044Z,100885.23
2023-05-09T01:36:55.359Z,100887.14
2023-05-09T01:39:22.116Z,100891.71
2023-05-09T01:41:49.124Z,100889.05
2023-05-09T01:44:17.081Z,100897.48
2023-05-09T01:46:44.438Z,100895.88
2023-05-09T01:49:11.450Z,100896.42
2023-05-09T01:51:38.339Z,100893.30
2023-05-09T01:54:06.021Z,100894.91
2023-05-09T01:56:35.761Z,100892.61
2023-05-09T01:59:02.711Z,100890.63
2023-05-09T02:01:30.397Z,100894.74
2023-05-09T02:04:02.401Z,100895.23
2023-05-09T02:06:30.696Z,100898.48
2023-05-09T02:08:57.649Z,100897.66
2023-05-09T02:11:25.970Z,100894.81
2023-05-09T02:13:53.160Z,100895.24
2023-05-09T02:16:20.787Z,100892.58
2023-05-09T02:18:48.117Z,100893.21
2023-05-09T02:21:15.028Z,100895.95
2023-05-09T02:23:42.062Z,100894.56
2023-05-09T02:26:08.937Z,100893.15
2023-05-09T02:28:36.006Z,100897.33
2023-05-09T02:31:03.477Z,100894.16
2023-05-09T02:33:41.957Z,100897.28
2023-05-09T02:36:09.310Z,100898.64
2023-05-09T02:38:41.292Z,100896.15
2023-05-09T02:41:12.854Z,100897.64
2023-05-09T02:43:45.330Z,100894.48
2023-05-09T02:46:12.257Z,100897.60
2023-05-09T02:48:39.941Z,100899.48
2023-05-09T02:51:07.372Z,100904.33
2023-05-09T02:53:34.327Z,100901.60
2023-05-09T02:56:01.193Z,100900.73
2023-05-09T02:58:28.189Z,100902.13
2023-05-09T03:00:55.054Z,100904.52
2023-05-09T03:03:22.904Z,100901.19
2023-05-09T03:05:50.711Z,100902.09
2023-05-09T03:08:17.743Z,100903.48
2023-05-09T03:10:44.861Z,100905.08
2023-05-09T03:13:11.713Z,100906.68
2023-05-09T03:15:38.644Z,100907.52
2023-05-09T03:18:06.343Z,100915.39
2023-05-09T03:20:33.491Z,100912.20
2023-05-09T03:23:00.364Z,100916.20
2023-05-09T03:25:27.215Z,100920.02
2023-05-09T03:27:54.064Z,100925.62
2023-05-09T03:30:21.479Z,100922.29
2023-05-09T03:32:49.061Z,100925.80
2023-05-09T03:35:16.225Z,100927.89
2023-05-09T03:37:43.407Z,100929.89
2023-05-09T03:40:10.908Z,100930.33
2023-05-09T03:42:43.630Z,100929.33
2023-05-09T03:45:11.255Z,100928.52
2023-05-09T03:47:39.186Z,100928.83
2023-05-09T03:50:11.152Z,100927.25
2023-05-09T03:52:39.384Z,100931.50
2023-05-09T03:55:07.148Z,100937.89
2023-05-09T03:57:35.272Z,100942.03
2023-05-09T04:00:04.578Z,100942.86
2023-05-09T04:02:41.815Z,100944.06
2023-05-09T04:05:11.583Z,100945.88
2023-05-09T04:07:38.487Z,100954.12
2023-05-09T04:10:07.088Z,100953.52
2023-05-09T04:12:35.207Z,100956.43
2023-05-09T04:15:02.341Z,100957.60
2023-05-09T04:17:30.822Z,100958.14
2023-05-09T04:19:57.792Z,100957.74
2023-05-09T04:22:24.623Z,100957.09
2023-05-09T04:24:51.642Z,100958.77
2023-05-09T04:27:18.643Z,100962.47
2023-05-09T04:29:45.904Z,100959.62
2023-05-09T04:32:13.482Z,100957.84
2023-05-09T04:34:41.070Z,100958.71
2023-05-09T04:37:13.982Z,100959.94
2023-05-09T04:39:41.704Z,100953.95
2023-05-09T04:42:15.156Z,100952.05
2023-05-09T04:44:42.046Z,100948.36
2023-05-09T04:47:08.991Z,100948.32
2023-05-09T04:49:36.164Z,100950.91
2023-05-09T04:52:08.187Z,100952.84
2023-05-09T04:54:35.096Z,100949.28
2023-05-09T04:57:16.429Z,100950.23
2023-05-09T04:59:45.613Z,100952.13
2023-05-09T05:02:13.237Z,100951.94
2023-05-09T05:04:41.569Z,100956.15
2023-05-09T05:07:19.221Z,100956.41
2023-05-09T05:09:46.001Z,100955.27
2023-05-09T05:12:13.987Z,100953.93
2023-05-09T05:14:41.569Z,100958.46
2023-05-09T05:17:09.212Z,100959.20
2023-05-09T05:19:36.416Z,100959.91
2023-05-09T05:22:04.102Z,100957.66
2023-05-09T05:24:31.810Z,100959.34
2023-05-09T05:26:58.660Z,100958.29
2023-05-09T05:29:25.572Z,100960.02
2023-05-09T05:31:52.452Z,100958.45
2023-05-09T05:34:20.903Z,100963.77
2023-05-09T05:36:47.915Z,100966.06
2023-05-09T05:39:14.924Z,100963.13
2023-05-09T05:41:43.145Z,100963.11
2023-05-09T05:44:15.142Z,100963.98
2023-05-09T05:46:42.016Z,100962.65
2023-05-09T05:49:14.251Z,100964.73
2023-05-09T05:51:46.169Z,100963.67
2023-05-09T05:54:13.423Z,100965.40
2023-05-09T05:56:45.494Z,100968.54
2023-05-09T05:59:13.625Z,100971.04
2023-05-09T06:01:41.059Z,100969.59
2023-05-09T06:04:08.076Z,100965.31
2023-05-09T06:06:35.188Z,100968.75
2023-05-09T06:09:02.345Z,100968.96
2023-05-09T06:11:29.290Z,100968.75
2023-05-09T06:13:56.301Z,100971.30
2023-05-09T06:16:23.414Z,100971.73
2023-05-09T06:18:51.214Z,100969.11
2023-05-09T06:21:20.713Z,100969.05
2023-05-09T06:24:02.056Z,100969.39
2023-05-09T06:26:38.144Z,100966.77
2023-05-09T06:29:05.828Z,100965.13
2023-05-09T06:31:35.233Z,100969.27
2023-05-09T06:34:02.068Z,100965.80
2023-05-09T06:36:29.096Z,100964.59
2023-05-09T06:39:01.008Z,100962.83
2023-05-09T06:41:27.956Z,100964.79
2023-05-09T06:43:54.932Z,100966.75
2023-05-09T06:46:21.933Z,100965.33
2023-05-09T06:48:48.974Z,100965.41
2023-05-09T06:51:16.954Z,100963.71
2023-05-09T06:53:44.010Z,100963.17
2023-05-09T06:56:11.250Z,100958.22
2023-05-09T06:58:38.094Z,100962.07
2023-05-09T07:01:05.058Z,100961.92
2023-05-09T07:03:32.576Z,100963.45
2023-05-09T07:05:59.452Z,100963.98
2023-05-09T07:08:26.686Z,100958.17
2023-05-09T07:10:53.787Z,100955.75
2023-05-09T07:13:20.757Z,100956.52
2023-05-09T07:15:47.728Z,100953.05
2023-05-09T07:18:16.064Z,100950.99
2023-05-09T07:20:43.127Z,100952.60
2023-05-09T07:23:10.270Z,100952.04
2023-05-09T07:25:37.163Z,100950.98
2023-05-09T07:28:04.500Z,100949.08
2023-05-09T07:30:32.733Z,100947.38
2023-05-09T07:33:00.762Z,100945.25
2023-05-09T07:35:27.869Z,100938.30
2023-05-09T07:37:55.225Z,100940.63
2023-05-09T07:40:22.184Z,100938.55
2023-05-09T07:42:50.972Z,100935.65
2023-05-09T07:45:19.940Z,100934.83
2023-05-09T07:47:48.097Z,100933.08
2023-05-09T07:50:16.391Z,100931.24
2023-05-09T07:52:43.329Z,100930.38
2023-05-09T07:55:11.798Z,100932.61
2023-05-09T07:57:39.309Z,100926.88
2023-05-09T08:00:09.975Z,100919.27
2023-05-09T08:02:42.850Z,100920.80
2023-05-09T08:05:10.932Z,100915.34
2023-05-09T08:07:38.249Z,100916.88
2023-05-09T08:10:06.305Z,100917.00
2023-05-09T08:12:33.637Z,100913.61
2023-05-09T08:15:00.581Z,100912.33
2023-05-09T08:17:27.607Z,100907.98
2023-05-09T08:19:54.978Z,100903.85
2023-05-09T08:22:22.491Z,100899.50
2023-05-09T08:24:49.519Z,100898.26
2023-05-09T08:27:21.658Z,100892.78
2023-05-09T08:29:48.706Z,100897.16
2023-05-09T08:32:15.922Z,100894.87
2023-05-09T08:34:43.340Z,100894.71
2023-05-09T08:37:15.630Z,100893.27
2023-05-09T08:39:42.755Z,100895.34
2023-05-09T08:42:11.483Z,100887.97
2023-05-09T08:44:39.071Z,100888.39
2023-05-09T08:47:07.414Z,100885.28
2023-05-09T08:49:35.727Z,100878.92
2023-05-09T08:52:03.577Z,100876.06
2023-05-09T08:54:32.492Z,100878.79
2023-05-09T08:57:06.628Z,100873.66
2023-05-09T08:59:36.861Z,100870.56
2023-05-09T09:02:07.766Z,100867.67
2023-05-09T09:04:36.656Z,100857.70
2023-05-09T09:07:04.406Z,100858.29
2023-05-09T09:09:32.688Z,100854.83
2023-05-09T09:12:01.412Z,100853.39
2023-05-09T09:14:31.478Z,100847.23
2023-05-09T09:17:00.510Z,100844.30
2023-05-09T09:19:30.479Z,100841.86
2023-05-09T09:21:59.650Z,100844.34
2023-05-09T09:24:26.603Z,100842.27
2023-05-09T09:26:55.102Z,100835.78
2023-05-09T09:29:27.698Z,100826.98
2023-05-09T09:31:55.766Z,100832.30
2023-05-09T09:34:23.663Z,100828.11
2023-05-09T09:36:51.487Z,100821.97
2023-05-09T09:39:21.093Z,100821.93
2023-05-09T09:41:50.475Z,100829.31
2023-05-09T09:44:22.456Z,100831.73
2023-05-09T09:46:55.971Z,100838.60
2023-05-09T09:49:27.458Z,100838.70
2023-05-09T09:51:58.495Z,100835.80
2023-05-09T09:54:29.818Z,100834.61
2023-05-09T09:56:58.982Z,100835.39
2023-05-09T09:59:27.789Z,100831.73
2023-05-09T10:02:08.004Z,100831.85
2023-05-09T10:04:41.437Z,100833.55
2023-05-09T10:07:14.489Z,100826.48
2023-05-09T10:09:48.432Z,100824.46
2023-05-09T10:12:20.460Z,100825.84
2023-05-09T10:14:50.922Z,100826.35
2023-05-09T10:17:20.928Z,100823.86
2023-05-09T10:19:51.958Z,100822.51
2023-05-09T10:22:22.452Z,100823.24
2023-05-09T10:25:06.484Z,100825.75
2023-05-09T10:27:37.100Z,100825.86
2023-05-09T10:30:14.453Z,100826.99
2023-05-09T10:33:00.424Z,100825.48
2023-05-09T10:35:34.424Z,100821.80
2023-05-09T10:38:05.512Z,100822.93
2023-05-09T10:40:36.462Z,100823.80
2023-05-09T10:49:37.411Z,100826.05
2023-05-09T10:52:04.639Z,100827.40
2023-05-09T10:54:33.747Z,100824.92
2023-05-09T10:57:01.344Z,100823.27
2023-05-09T10:59:35.759Z,100829.38
2023-05-09T11:02:03.838Z,100825.77
2023-05-09T11:04:34.169Z,100823.17
2023-05-09T11:07:01.264Z,100827.10
2023-05-09T11:09:29.475Z,100824.70
2023-05-09T11:12:05.995Z,100824.05
2023-05-09T11:14:48.158Z,100827.59
2023-05-09T11:17:21.270Z,100823.35
2023-05-09T11:19:51.166Z,100823.52
2023-05-09T11:22:28.212Z,100826.74
2023-05-09T11:25:08.647Z,100831.23
2023-05-09T11:27:43.789Z,100829.98
2023-05-09T11:30:16.142Z,100829.04
2023-05-09T11:32:46.137Z,100832.38
2023-05-09T11:35:14.438Z,100830.55
2023-05-09T11:37:56.181Z,100829.39
2023-05-09T11:40:23.459Z,100825.92
2023-05-09T11:42:57.746Z,100822.95
2023-05-09T11:45:32.348Z,100819.30
2023-05-09T11:48:00.462Z,100823.58
2023-05-09T11:50:27.831Z,100826.59
2023-05-09T11:52:54.802Z,100826.21
2023-05-09T11:55:22.153Z,100826.96
2023-05-09T11:57:52.113Z,100830.98
2023-05-09T12:00:21.506Z,100830.80
2023-05-09T12:02:48.759Z,100829.90
2023-05-09T12:05:18.109Z,100826.11
2023-05-09T12:07:46.579Z,100823.61
2023-05-09T12:10:20.821Z,100816.73
2023-05-09T12:12:52.333Z,100816.70
2023-05-09T12:15:20.745Z,100811.63
2023-05-09T12:17:49.740Z,100808.29
2023-05-09T12:20:19.389Z,100807.15
2023-05-09T12:22:47.740Z,100806.45
2023-05-09T12:25:15.779Z,100806.30
2023-05-09T12:27:43.502Z,100804.33
2023-05-09T12:30:13.614Z,100796.19
2023-05-09T12:32:42.391Z,100795.80
2023-05-09T12:35:09.882Z,100793.63
2023-05-09T12:37:38.029Z,100794.44
2023-05-09T12:40:11.752Z,100793.37
2023-05-09T12:42:38.855Z,100788.95
2023-05-09T12:45:07.854Z,100791.07
2023-05-09T12:47:37.252Z,100787.33
2023-05-09T12:50:05.893Z,100788.05
2023-05-09T12:52:50.130Z,100785.11
2023-05-09T12:55:21.989Z,100783.69
2023-05-09T12:58:00.132Z,100783.08
2023-05-09T13:00:27.918Z,100783.38
2023-05-09T13:02:55.211Z,100783.22
2023-05-09T13:05:22.617Z,100776.98
2023-05-09T13:07:54.334Z,100774.34
2023-05-09T13:10:27.910Z,100774.92
2023-05-09T13:12:55.449Z,100776.23
2023-05-09T13:15:26.152Z,100774.70
2023-05-09T13:17:54.032Z,100771.21
2023-05-09T13:20:22.238Z,100769.48
2023-05-09T13:22:50.036Z,100766.46
2023-05-09T13:25:20.048Z,100770.06
2023-05-09T13:27:48.291Z,100769.92
2023-05-09T13:30:18.340Z,100768.23
2023-05-09T13:32:47.014Z,100763.68
2023-05-09T13:35:14.576Z,100766.46
2023-05-09T13:37:42.550Z,100760.10
2023-05-09T13:40:11.592Z,100761.65
2023-05-09T13:42:38.874Z,100765.37
2023-05-09T13:45:06.566Z,100767.45
2023-05-09T13:47:36.566Z,100767.45
2023-05-09T13:50:06.421Z,100767.15
2023-05-09T13:52:33.646Z,100765.35
2023-05-09T13:55:01.048Z,100764.83
2023-05-09T13:57:28.249Z,100765.59
2023-05-09T13:59:55.228Z,100766.13
2023-05-09T14:02:24.011Z,100763.12
2023-05-09T14:04:51.397Z,100763.10
2023-05-09T14:07:20.439Z,100759.54
2023-05-09T14:09:48.151Z,100760.63
2023-05-09T14:12:18.778Z,100760.27
2023-05-09T14:14:46.770Z,100762.13
2023-05-09T14:17:14.404Z,100762.70
2023-05-09T14:19:41.307Z,100764.84
2023-05-09T14:22:09.883Z,100761.01
2023-05-09T14:24:38.479Z,100766.16
2023-05-09T14:27:05.412Z,100763.61
2023-05-09T14:29:36.205Z,100767.70
2023-05-09T14:32:03.283Z,100768.19
2023-05-09T14:34:30.403Z,100766.76
2023-05-09T14:36:57.410Z,100763.45
2023-05-09T14:39:24.783Z,100766.18
2023-05-09T14:41:51.964Z,100766.48
2023-05-09T14:44:19.562Z,100763.34
2023-05-09T14:46:48.162Z,100760.52
2023-05-09T14:49:15.040Z,100758.35
2023-05-09T14:51:42.126Z,100758.54
2023-05-09T14:54:09.095Z,100757.58
2023-05-09T14:56:36.284Z,100764.63
2023-05-09T14:59:03.755Z,100761.82
2023-05-09T15:01:36.197Z,100763.97
2023-05-09T15:04:03.457Z,100763.90
2023-05-09T15:06:31.483Z,100763.75
2023-05-09T15:08:59.873Z,100766.36
2023-05-09T15:11:28.713Z,100767.69
2023-05-09T15:13:58.216Z,100769.58
2023-05-09T15:16:25.762Z,100768.63
2023-05-09T15:18:52.785Z,100772.06
2023-05-09T15:21:19.883Z,100772.42
2023-05-09T15:23:47.148Z,100767.49
2023-05-09T15:26:13.993Z,100770.25
2023-05-09T15:28:41.661Z,100769.39
2023-05-09T15:31:08.984Z,100772.57
2023-05-09T15:33:36.018Z,100775.52
2023-05-09T15:36:03.020Z,100773.77
2023-05-09T15:38:30.477Z,100774.86
2023-05-09T15:41:00.513Z,100774.17
2023-05-09T15:43:27.445Z,100777.24
2023-05-09T15:45:54.382Z,100777.80
2023-05-09T15:48:21.882Z,100779.03
2023-05-09T15:50:49.283Z,100780.05
2023-05-09T15:53:22.652Z,100777.49
2023-05-09T15:55:49.553Z,100773.28
2023-05-09T15:58:16.848Z,100775.50
2023-05-09T16:00:50.543Z,100772.19
2023-05-09T16:03:17.910Z,100778.60
2023-05-09T16:05:45.343Z,100774.79
2023-05-09T16:08:12.658Z,100774.95
2023-05-09T16:10:40.259Z,100777.52
2023-05-09T16:13:08.178Z,100779.02
2023-05-09T16:15:35.795Z,100775.48
2023-05-09T16:18:03.215Z,100777.04
2023-05-09T16:20:31.291Z,100772.55
2023-05-09T16:22:59.284Z,100772.11
2023-05-09T16:25:26.309Z,100772.00
2023-05-09T16:27:54.925Z,100771.77
2023-05-09T16:30:24.283Z,100772.44
2023-05-09T16:32:52.054Z,100772.04
2023-05-09T16:35:18.967Z,100772.15
2023-05-09T16:37:47.417Z,100771.04
2023-05-09T16:40:15.693Z,100776.45
2023-05-09T16:42:43.888Z,100779.48
2023-05-09T16:45:11.195Z,100777.50
2023-05-09T16:47:38.367Z,100776.06
2023-05-09T16:50:05.758Z,100773.85
2023-05-09T16:52:38.030Z,100770.25
2023-05-09T16:55:07.084Z,100772.41
2023-05-09T16:57:34.456Z,100774.09
2023-05-09T17:00:01.707Z,100771.60
2023-05-09T17:02:29.728Z,100775.88
2023-05-09T17:04:57.039Z,100775.87
2023-05-09T17:07:24.199Z,100774.45
2023-05-09T17:09:51.701Z,100777.73
2023-05-09T17:12:24.076Z,100779.15
2023-05-09T17:14:51.595Z,100779.66
2023-05-09T17:17:18.458Z,100783.86
2023-05-09T17:19:46.095Z,100784.83
2023-05-09T17:22:13.818Z,100789.28
2023-05-09T17:24:41.333Z,100791.63
2023-05-09T17:27:10.503Z,100791.70
2023-05-09T17:29:39.010Z,100796.38
2023-05-09T17:32:06.987Z,100799.90
2023-05-09T17:34:34.843Z,100803.81
2023-05-09T17:37:02.516Z,100802.73
2023-05-09T17:39:30.124Z,100800.51
2023-05-09T17:41:57.667Z,100801.54
2023-05-09T17:44:24.479Z,100803.67
2023-05-09T17:46:51.712Z,100802.40
2023-05-09T17:49:19.131Z,100802.78
2023-05-09T17:51:46.644Z,100804.29
2023-05-09T17:54:13.724Z,100806.67
2023-05-09T17:56:40.985Z,100811.60
2023-05-09T17:59:08.749Z,100810.74
2023-05-09T18:01:35.983Z,100808.05
2023-05-09T18:04:02.958Z,100813.50
2023-05-09T18:06:30.838Z,100812.04
2023-05-09T18:08:58.015Z,100812.68
2023-05-09T18:11:25.875Z,100810.25
2023-05-09T18:13:53.006Z,100812.86
2023-05-09T18:16:20.153Z,100817.90
2023-05-09T18:18:47.470Z,100816.91
2023-05-09T18:21:14.455Z,100813.62
2023-05-09T18:23:42.017Z,100810.45
2023-05-09T18:26:09.475Z,100814.70
2023-05-09T18:28:40.080Z,100815.93
2023-05-09T18:31:12.468Z,100821.95
2023-05-09T18:33:40.241Z,100821.42
2023-05-09T18:36:09.415Z,100822.81
2023-05-09T18:38:39.676Z,100825.35
2023-05-09T18:41:12.836Z,100824.71
2023-05-09T18:43:46.078Z,100825.16
2023-05-09T18:46:17.092Z,100825.64
2023-05-09T18:48:44.859Z,100824.08
2023-05-09T18:51:11.804Z,100826.96
2023-05-09T18:53:39.375Z,100823.80
2023-05-09T18:56:07.096Z,100824.52
2023-05-09T18:58:35.778Z,100823.89
2023-05-09T19:01:03.410Z,100824.41
2023-05-09T19:03:32.934Z,100824.25
2023-05-09T19:06:00.292Z,100824.65
2023-05-09T19:08:28.802Z,100826.41
2023-05-09T19:10:56.026Z,100823.49
2023-05-09T19:13:24.162Z,100822.41
2023-05-09T19:15:51.423Z,100824.36
2023-05-09T19:18:18.763Z,100822.06
2023-05-09T19:20:47.205Z,100821.85
2023-05-09T19:23:15.641Z,100820.80
2023-05-09T19:25:42.593Z,100822.98
2023-05-09T19:28:10.581Z,100817.89
2023-05-09T19:30:37.867Z,100821.02
2023-05-09T19:33:05.473Z,100820.98
2023-05-09T19:35:32.731Z,100821.85
2023-05-09T19:37:59.861Z,100821.15
2023-05-09T19:40:26.922Z,100824.21
2023-05-09T19:42:54.817Z,100820.86
2023-05-09T19:45:22.481Z,100819.11
2023-05-09T19:47:49.722Z,100822.37
2023-05-09T19:50:17.159Z,100824.80
2023-05-09T19:52:44.495Z,100826.88
2023-05-09T19:55:12.905Z,100828.35
2023-05-09T19:57:39.799Z,100829.87
2023-05-09T20:00:07.913Z,100828.65
2023-05-09T20:02:35.216Z,100825.73
2023-05-09T20:05:03.400Z,100825.27
2023-05-09T20:07:31.394Z,100825.58
2023-05-09T20:09:58.745Z,100826.36
2023-05-09T20:12:29.348Z,100826.60
2023-05-09T20:14:58.018Z,100825.45
2023-05-09T20:17:25.007Z,100829.48
2023-05-09T20:20:03.154Z,100825.06
2023-05-09T20:22:30.406Z,100826.23
2023-05-09T20:25:03.074Z,100828.89
2023-05-09T20:27:30.409Z,100828.61
2023-05-09T20:29:57.499Z,100826.70
2023-05-09T20:32:24.893Z,100827.39
2023-05-09T20:34:52.040Z,100828.42
2023-05-09T20:37:18.991Z,100827.31
2023-05-09T20:39:51.481Z,100828.94
2023-05-09T20:42:18.696Z,100826.00
2023-05-09T20:44:47.331Z,100830.16
2023-05-09T20:47:20.346Z,100828.83
2023-05-09T20:49:48.562Z,100825.88
2023-05-09T20:52:15.922Z,100827.98
2023-05-09T20:54:43.012Z,100821.40
2023-05-09T20:57:10.021Z,100819.84
2023-05-09T20:59:36.929Z,100824.23
2023-05-09T21:02:04.135Z,100822.71
2023-05-09T21:04:32.455Z,100823.05
2023-05-09T21:06:59.596Z,100822.01
2023-05-09T21:09:26.645Z,100820.33
2023-05-09T21:11:53.586Z,100817.75
2023-05-09T21:14:20.681Z,100820.58
2023-05-09T21:16:48.657Z,100818.20
2023-05-09T21:19:15.620Z,100819.52
2023-05-09T21:21:43.254Z,100822.09
2023-05-09T21:24:10.173Z,100822.70
2023-05-09T21:26:37.195Z,100826.28
2023-05-09T21:29:05.183Z,100824.36
2023-05-09T21:31:32.118Z,100823.10
2023-05-09T21:34:00.843Z,100820.58
2023-05-09T21:36:28.524Z,100820.10
2023-05-09T21:38:55.682Z,100818.23
2023-05-09T21:41:27.658Z,100813.86
2023-05-09T21:43:54.684Z,100814.63
2023-05-09T21:46:22.302Z,100810.89
2023-05-09T21:48:49.495Z,100809.73
2023-05-09T21:51:16.606Z,100808.06
2023-05-09T21:53:44.930Z,100807.45
2023-05-09T21:56:13.995Z,100803.12
2023-05-09T21:58:41.193Z,100806.41
2023-05-09T22:01:08.100Z,100802.85
2023-05-09T22:03:36.189Z,100803.76
2023-05-09T22:06:03.487Z,100803.32
2023-05-09T22:08:36.781Z,100800.02
2023-05-09T22:11:05.464Z,100800.15
2023-05-09T22:13:35.177Z,100797.19
2023-05-09T22:16:03.138Z,100797.99
2023-05-09T22:18:30.603Z,100795.62
2023-05-09T22:20:58.551Z,100793.08
2023-05-09T22:23:26.473Z,100793.70
2023-05-09T22:25:58.794Z,100795.83
2023-05-09T22:28:26.501Z,100794.75
2023-05-09T22:30:53.542Z,100793.83
2023-05-09T22:33:21.431Z,100796.25
2023-05-09T22:35:48.701Z,100792.19
2023-05-09T22:38:15.799Z,100790.33
2023-05-09T22:40:42.894Z,100792.01
2023-05-09T22:43:10.616Z,100789.66
2023-05-09T22:45:37.656Z,100790.45
2023-05-09T22:48:05.326Z,100787.06
2023-05-09T22:50:32.451Z,100785.77
2023-05-09T22:53:00.249Z,100785.33
2023-05-09T22:55:27.064Z,100780.70
2023-05-09T22:57:54.106Z,100780.07
2023-05-09T23:00:21.301Z,100782.95
2023-05-09T23:02:48.880Z,100787.83
2023-05-09T23:05:16.019Z,100789.80
2023-05-09T23:07:44.412Z,100789.14
2023-05-09T23:10:16.613Z,100787.59
2023-05-09T23:12:44.000Z,100790.34
2023-05-09T23:15:11.322Z,100792.13
2023-05-09T23:17:38.571Z,100787.24
2023-05-09T23:20:08.165Z,100787.71
2023-05-09T23:22:35.265Z,100784.08
2023-05-09T23:25:02.832Z,100782.05
2023-05-09T23:27:30.785Z,100778.10
2023-05-09T23:29:58.096Z,100777.71
2023-05-09T23:32:25.148Z,100775.55
2023-05-09T23:34:52.958Z,100775.29
2023-05-09T23:37:19.912Z,100777.13
2023-05-09T23:39:52.064Z,100779.02
2023-05-09T23:42:19.730Z,100778.82
2023-05-09T23:44:47.176Z,100778.64
2023-05-09T23:47:14.235Z,100782.44
2023-05-09T23:49:42.549Z,100784.10
2023-05-09T23:52:09.812Z,100784.00
2023-05-09T23:54:38.224Z,100782.73
2023-05-09T23:57:05.255Z,100786.19
2023-05-09T23:59:32.405Z,100781.16
